createdAt,value
2023-01-01T00:01:40.444Z,56.99
2023-01-01T00:04:10.938Z,57.19
2023-01-01T00:06:37.631Z,57.02
2023-01-01T00:09:22.933Z,57.20
2023-01-01T00:11:49.435Z,57.35
2023-01-01T00:14:15.927Z,57.24
2023-01-01T00:16:42.410Z,56.86
2023-01-01T00:19:08.977Z,56.50
2023-01-01T00:21:35.428Z,56.64
2023-01-01T00:24:02.265Z,56.42
2023-01-01T00:26:34.641Z,56.46
2023-01-01T00:29:02.030Z,56.26
2023-01-01T00:31:28.986Z,55.97
2023-01-01T00:33:55.988Z,56.33
2023-01-01T00:36:24.469Z,56.04
2023-01-01T00:38:50.925Z,56.33
2023-01-01T00:41:18.344Z,56.24
2023-01-01T00:43:45.358Z,56.24
2023-01-01T00:46:12.590Z,55.97
2023-01-01T00:48:39.357Z,55.95
2023-01-01T00:51:07.619Z,56.26
2023-01-01T00:53:34.166Z,56.41
2023-01-01T00:56:00.654Z,55.99
2023-01-01T00:58:27.216Z,56.20
2023-01-01T01:00:54.805Z,56.23
2023-01-01T01:03:28.128Z,55.79
2023-01-01T01:05:55.975Z,55.75
2023-01-01T01:08:28.547Z,56.09
2023-01-01T01:11:05.863Z,55.71
2023-01-01T01:13:32.534Z,55.98
2023-01-01T01:15:59.165Z,55.88
2023-01-01T01:18:25.637Z,55.89
2023-01-01T01:20:53.341Z,55.97
2023-01-01T01:23:20.984Z,56.32
2023-01-01T01:25:47.629Z,55.73
2023-01-01T01:28:14.135Z,55.83
2023-01-01T01:30:41.150Z,55.69
2023-01-01T01:33:07.790Z,55.81
2023-01-01T01:35:34.310Z,56.04
2023-01-01T01:38:00.707Z,55.89
2023-01-01T01:40:27.179Z,55.79
2023-01-01T01:42:53.567Z,55.71
2023-01-01T01:45:20.211Z,55.27
2023-01-01T01:47:49.747Z,55.61
2023-01-01T01:50:30.396Z,55.58
2023-01-01T01:53:02.440Z,55.59
2023-01-01T01:55:31.202Z,55.34
2023-01-01T01:57:57.850Z,55.37
2023-01-01T02:00:24.477Z,55.54
2023-01-01T02:02:57.365Z,54.92
2023-01-01T02:05:24.972Z,55.02
2023-01-01T02:07:52.951Z,54.97
2023-01-01T02:10:19.507Z,55.12
2023-01-01T02:12:45.991Z,55.14
2023-01-01T02:15:12.773Z,55.18
2023-01-01T02:17:55.411Z,54.94
2023-01-01T02:20:40.399Z,55.48
2023-01-01T02:23:18.662Z,55.66
2023-01-01T02:26:22.631Z,55.47
2023-01-01T02:29:03.296Z,55.93
2023-01-01T02:31:42.267Z,56.37
2023-01-01T02:34:13.489Z,56.39
2023-01-01T02:36:48.523Z,56.29
2023-01-01T02:39:16.889Z,56.30
2023-01-01T02:41:50.269Z,56.19
2023-01-01T02:44:19.745Z,56.53
2023-01-01T02:46:46.139Z,56.04
2023-01-01T02:49:12.569Z,56.19
2023-01-01T02:51:50.963Z,56.32
2023-01-01T02:54:32.461Z,56.46
2023-01-01T02:57:10.115Z,56.59
2023-01-01T03:00:17.480Z,56.54
2023-01-01T03:03:21.136Z,56.64
2023-01-01T03:06:18.485Z,56.97
2023-01-01T03:09:05.859Z,57.26
2023-01-01T03:11:58.553Z,57.32
2023-01-01T03:14:30.943Z,57.39
2023-01-01T03:17:06.095Z,57.91
2023-01-01T03:19:37.887Z,57.61
2023-01-01T03:22:08.079Z,57.67
2023-01-01T03:24:36.212Z,57.45
2023-01-01T03:27:08.015Z,57.88
2023-01-01T03:29:39.440Z,57.82
2023-01-01T03:32:10.731Z,58.08
2023-01-01T03:34:42.625Z,58.49
2023-01-01T03:37:15.018Z,58.44
2023-01-01T03:39:54.957Z,58.59
2023-01-01T03:42:36.740Z,58.68
2023-01-01T03:45:26.264Z,59.08
2023-01-01T03:47:53.152Z,58.88
2023-01-01T03:50:24.375Z,59.02
2023-01-01T03:53:03.108Z,59.00
2023-01-01T03:55:41.869Z,59.22
2023-01-01T03:58:26.297Z,59.06
2023-01-01T04:01:04.124Z,59.28
2023-01-01T04:03:32.728Z,59.40
2023-01-01T04:06:01.779Z,59.31
2023-01-01T04:08:28.347Z,59.30
2023-01-01T04:10:57.419Z,59.63
2023-01-01T04:13:23.867Z,59.72
2023-01-01T04:15:50.872Z,59.67
2023-01-01T04:18:17.323Z,59.97
2023-01-01T04:20:43.768Z,59.84
2023-01-01T04:23:10.251Z,59.96
2023-01-01T04:25:36.705Z,59.80
2023-01-01T04:28:06.683Z,59.76
2023-01-01T04:32:59.405Z,60.26
2023-01-01T04:35:25.919Z,60.11
2023-01-01T04:37:52.696Z,60.24
2023-01-01T04:40:19.230Z,60.23
2023-01-01T04:42:45.689Z,60.11
2023-01-01T04:45:15.108Z,60.00
2023-01-01T04:47:42.020Z,60.23
2023-01-01T04:50:09.209Z,59.95
2023-01-01T04:52:35.666Z,60.03
2023-01-01T04:55:02.135Z,59.89
2023-01-01T04:57:32.105Z,59.94
2023-01-01T04:59:58.602Z,59.79
2023-01-01T05:02:26.050Z,59.75
2023-01-01T05:04:52.855Z,59.55
2023-01-01T05:07:19.280Z,59.20
2023-01-01T05:09:45.752Z,58.92
2023-01-01T05:12:12.179Z,58.83
2023-01-01T05:14:38.614Z,58.63
2023-01-01T05:17:05.005Z,58.41
2023-01-01T05:19:31.385Z,58.32
2023-01-01T05:21:57.785Z,57.90
2023-01-01T05:24:24.335Z,57.75
2023-01-01T05:26:50.808Z,57.87
2023-01-01T05:29:17.762Z,57.39
2023-01-01T05:31:45.873Z,57.56
2023-01-01T05:34:12.716Z,57.74
2023-01-01T05:36:39.504Z,57.40
2023-01-01T05:39:12.004Z,57.39
2023-01-01T05:41:38.954Z,57.08
2023-01-01T05:44:07.152Z,56.65
2023-01-01T05:46:33.723Z,56.66
2023-01-01T05:49:00.822Z,56.29
2023-01-01T05:51:29.614Z,55.90
2023-01-01T05:53:56.792Z,56.22
2023-01-01T05:56:23.628Z,55.97
2023-01-01T05:58:50.182Z,55.63
2023-01-01T06:01:25.690Z,55.69
2023-01-01T06:03:53.517Z,55.13
2023-01-01T06:06:29.133Z,54.96
2023-01-01T06:09:05.378Z,54.68
2023-01-01T06:11:33.097Z,54.98
2023-01-01T06:14:01.143Z,54.77
2023-01-01T06:16:29.324Z,54.82
2023-01-01T06:18:56.134Z,54.53
2023-01-01T06:21:24.741Z,54.58
2023-01-01T06:23:51.461Z,54.64
2023-01-01T06:26:29.547Z,54.42
2023-01-01T06:28:56.976Z,53.87
2023-01-01T06:31:23.658Z,54.09
2023-01-01T06:33:53.545Z,54.09
2023-01-01T06:36:22.748Z,54.03
2023-01-01T06:38:51.815Z,54.24
2023-01-01T06:41:25.526Z,53.91
2023-01-01T06:43:52.050Z,53.55
2023-01-01T06:46:19.564Z,53.62
2023-01-01T06:48:48.725Z,54.01
2023-01-01T06:51:17.955Z,54.12
2023-01-01T06:53:44.431Z,53.70
2023-01-01T06:56:11.155Z,53.62
2023-01-01T06:58:37.825Z,53.93
2023-01-01T07:01:30.760Z,53.58
2023-01-01T07:04:02.153Z,53.51
2023-01-01T07:06:30.398Z,53.85
2023-01-01T07:08:57.116Z,54.09
2023-01-01T07:11:25.958Z,53.61
2023-01-01T07:13:52.670Z,53.74
2023-01-01T07:16:19.467Z,53.88
2023-01-01T07:18:47.073Z,53.98
2023-01-01T07:21:29.238Z,54.16
2023-01-01T07:24:00.112Z,54.01
2023-01-01T07:26:27.829Z,54.37
2023-01-01T07:28:54.392Z,54.42
2023-01-01T07:31:21.246Z,54.03
2023-01-01T07:33:47.775Z,53.94
2023-01-01T07:36:14.225Z,54.06
2023-01-01T07:38:40.937Z,53.93
2023-01-01T07:41:07.634Z,54.28
2023-01-01T07:43:34.119Z,54.15
2023-01-01T07:46:00.827Z,54.04
2023-01-01T07:48:27.841Z,54.15
2023-01-01T07:50:54.454Z,53.84
2023-01-01T07:53:20.898Z,53.87
2023-01-01T07:55:47.724Z,53.75
2023-01-01T07:58:14.134Z,53.73
2023-01-01T08:00:40.583Z,53.63
2023-01-01T08:03:08.009Z,53.53
2023-01-01T08:05:35.794Z,53.46
2023-01-01T08:08:02.386Z,53.08
2023-01-01T08:10:29.083Z,52.72
2023-01-01T08:13:03.696Z,52.97
2023-01-01T08:15:30.236Z,52.49
2023-01-01T08:17:58.217Z,52.74
2023-01-01T08:20:25.252Z,52.66
2023-01-01T08:22:51.729Z,52.52
2023-01-01T08:25:18.445Z,52.76
2023-01-01T08:27:45.095Z,52.62
2023-01-01T08:30:13.391Z,52.64
2023-01-01T08:32:39.791Z,52.43
2023-01-01T08:35:06.864Z,52.42
2023-01-01T08:37:33.306Z,52.25
2023-01-01T08:39:59.706Z,52.11
2023-01-01T08:42:26.112Z,52.33
2023-01-01T08:44:55.037Z,52.18
2023-01-01T08:47:24.567Z,51.98
2023-01-01T08:49:51.596Z,51.65
2023-01-01T08:52:18.598Z,51.95
2023-01-01T08:54:45.128Z,52.01
2023-01-01T08:57:11.969Z,51.65
2023-01-01T08:59:38.682Z,51.18
2023-01-01T09:02:05.233Z,51.39
2023-01-01T09:04:32.016Z,51.15
2023-01-01T09:06:58.505Z,51.27
2023-01-01T09:09:31.108Z,51.34
2023-01-01T09:12:01.706Z,50.57
2023-01-01T09:14:28.181Z,50.42
2023-01-01T09:16:54.748Z,50.37
2023-01-01T09:19:21.254Z,50.37
2023-01-01T09:21:47.657Z,50.36
2023-01-01T09:24:14.026Z,50.36
2023-01-01T09:26:40.513Z,50.50
2023-01-01T09:29:06.982Z,50.44
2023-01-01T09:31:33.477Z,50.33
2023-01-01T09:33:59.901Z,50.99
2023-01-01T09:36:30.456Z,50.77
2023-01-01T09:38:58.246Z,51.06
2023-01-01T09:41:52.123Z,50.75
2023-01-01T09:44:32.672Z,50.88
2023-01-01T09:47:02.334Z,50.24
2023-01-01T09:49:38.050Z,50.77
2023-01-01T09:52:05.654Z,50.36
2023-01-01T09:54:43.261Z,50.58
2023-01-01T09:57:19.653Z,50.27
2023-01-01T09:59:46.801Z,50.43
2023-01-01T10:02:54.045Z,50.44
2023-01-01T10:05:57.462Z,50.17
2023-01-01T10:08:38.520Z,50.14
2023-01-01T10:11:15.032Z,50.08
2023-01-01T10:13:45.134Z,50.24
2023-01-01T10:16:24.685Z,50.14
2023-01-01T10:18:56.247Z,49.97
2023-01-01T10:21:46.715Z,49.95
2023-01-01T10:24:26.026Z,49.60
2023-01-01T10:26:55.479Z,49.29
2023-01-01T10:29:27.390Z,49.68
2023-01-01T10:31:56.964Z,49.83
2023-01-01T10:34:28.422Z,49.33
2023-01-01T10:36:57.387Z,49.34
2023-01-01T10:39:24.862Z,49.65
2023-01-01T10:41:51.817Z,49.86
2023-01-01T10:44:33.561Z,50.51
2023-01-01T10:47:16.947Z,50.68
2023-01-01T10:50:01.232Z,49.69
2023-01-01T10:52:40.637Z,48.80
2023-01-01T10:55:20.525Z,48.14
2023-01-01T10:57:47.058Z,46.98
2023-01-01T11:00:27.321Z,47.72
2023-01-01T11:03:06.042Z,46.68
2023-01-01T11:05:32.588Z,46.81
2023-01-01T11:07:59.022Z,46.77
2023-01-01T11:10:25.793Z,46.13
2023-01-01T11:13:09.748Z,46.28
2023-01-01T11:15:40.965Z,46.12
2023-01-01T11:18:22.727Z,46.57
2023-01-01T11:20:55.070Z,46.72
2023-01-01T11:23:36.336Z,46.42
2023-01-01T11:26:14.655Z,46.54
2023-01-01T11:28:42.177Z,46.61
2023-01-01T11:31:20.213Z,47.16
2023-01-01T11:33:52.993Z,46.36
2023-01-01T11:36:34.679Z,47.07
2023-01-01T11:39:27.014Z,45.71
2023-01-01T11:41:56.554Z,45.59
2023-01-01T11:44:31.990Z,45.33
2023-01-01T11:46:59.187Z,45.28
2023-01-01T11:49:29.407Z,45.59
2023-01-01T11:51:56.178Z,45.16
2023-01-01T11:54:35.802Z,45.41
2023-01-01T11:57:13.193Z,45.92
2023-01-01T12:00:01.995Z,45.48
2023-01-01T12:02:41.899Z,46.06
2023-01-01T12:05:24.101Z,46.30
2023-01-01T12:07:52.214Z,46.02
2023-01-01T12:10:31.200Z,46.69
2023-01-01T12:13:17.416Z,46.76
2023-01-01T12:16:06.423Z,46.78
2023-01-01T12:18:42.167Z,46.69
2023-01-01T12:21:18.748Z,46.42
2023-01-01T12:23:45.399Z,46.17
2023-01-01T12:26:25.844Z,46.35
2023-01-01T12:29:19.676Z,45.80
2023-01-01T12:32:00.474Z,45.94
2023-01-01T12:34:32.210Z,46.04
2023-01-01T12:37:16.982Z,45.67
2023-01-01T12:40:24.600Z,46.13
2023-01-01T12:43:26.010Z,45.87
2023-01-01T12:46:23.345Z,45.35
2023-01-01T12:49:07.920Z,45.72
2023-01-01T12:51:55.660Z,45.20
2023-01-01T12:54:56.626Z,45.48
2023-01-01T12:57:34.103Z,45.75
2023-01-01T13:00:02.522Z,45.75
2023-01-01T13:02:33.196Z,45.81
2023-01-01T13:05:07.986Z,45.82
2023-01-01T13:07:45.045Z,45.97
2023-01-01T13:10:36.617Z,46.38
2023-01-01T13:13:04.057Z,46.10
2023-01-01T13:15:40.173Z,46.43
2023-01-01T13:18:16.814Z,46.79
2023-01-01T13:20:54.900Z,47.01
2023-01-01T13:23:34.872Z,46.86
2023-01-01T13:26:23.066Z,46.69
2023-01-01T13:28:52.576Z,47.44
2023-01-01T13:31:19.162Z,47.90
2023-01-01T13:34:24.228Z,48.58
2023-01-01T13:36:50.707Z,48.77
2023-01-01T13:39:58.778Z,49.14
2023-01-01T13:43:05.653Z,49.31
2023-01-01T13:48:47.997Z,49.84
2023-01-01T13:55:06.955Z,50.48
2023-01-01T13:58:01.613Z,51.08
2023-01-01T14:00:35.059Z,51.45
2023-01-01T14:03:20.748Z,51.94
2023-01-01T14:05:59.165Z,52.04
2023-01-01T14:08:36.847Z,52.16
2023-01-01T14:11:19.107Z,52.43
2023-01-01T14:13:45.844Z,52.62
2023-01-01T14:16:14.622Z,52.58
2023-01-01T14:18:52.011Z,53.06
2023-01-01T14:21:33.889Z,53.40
2023-01-01T14:24:06.363Z,53.95
2023-01-01T14:26:36.327Z,53.79
2023-01-01T14:29:07.263Z,54.27
2023-01-01T14:31:42.827Z,54.45
2023-01-01T14:34:27.918Z,54.71
2023-01-01T14:36:59.995Z,54.88
2023-01-01T14:39:31.531Z,54.97
2023-01-01T14:42:04.672Z,55.38
2023-01-01T14:44:39.366Z,55.38
2023-01-01T14:47:21.549Z,55.54
2023-01-01T14:49:48.308Z,55.89
2023-01-01T14:52:35.408Z,56.07
2023-01-01T14:55:03.454Z,56.47
2023-01-01T14:57:37.049Z,56.83
2023-01-01T15:00:20.720Z,56.86
2023-01-01T15:02:47.242Z,57.05
2023-01-01T15:05:34.621Z,57.22
2023-01-01T15:08:05.017Z,57.64
2023-01-01T15:10:34.770Z,57.74
2023-01-01T15:13:05.300Z,57.93
2023-01-01T15:15:42.546Z,58.22
2023-01-01T15:18:45.651Z,58.28
2023-01-01T15:21:31.029Z,58.70
2023-01-01T15:24:01.524Z,59.07
2023-01-01T15:26:40.979Z,59.11
2023-01-01T15:29:16.347Z,59.40
2023-01-01T15:31:48.129Z,59.63
2023-01-01T15:34:22.863Z,59.93
2023-01-01T15:36:49.902Z,60.11
2023-01-01T15:39:16.376Z,60.21
2023-01-01T15:41:48.364Z,60.42
2023-01-01T15:44:27.167Z,60.48
2023-01-01T15:47:02.926Z,60.63
2023-01-01T15:49:30.579Z,60.86
2023-01-01T15:52:03.855Z,60.96
2023-01-01T15:54:32.977Z,61.18
2023-01-01T15:56:59.504Z,61.26
2023-01-01T15:59:30.805Z,61.54
2023-01-01T16:02:26.601Z,61.56
2023-01-01T16:04:53.657Z,62.10
2023-01-01T16:07:25.119Z,61.90
2023-01-01T16:09:57.390Z,62.15
2023-01-01T16:12:24.854Z,62.20
2023-01-01T16:14:51.334Z,62.51
2023-01-01T16:17:20.110Z,62.38
2023-01-01T16:19:47.715Z,62.44
2023-01-01T16:22:15.754Z,62.76
2023-01-01T16:24:43.301Z,62.51
2023-01-01T16:27:09.700Z,62.56
2023-01-01T16:29:36.438Z,62.62
2023-01-01T16:32:03.474Z,62.53
2023-01-01T16:34:29.867Z,62.69
2023-01-01T16:36:56.640Z,63.35
2023-01-01T16:39:23.047Z,63.91
2023-01-01T16:41:49.447Z,64.23
2023-01-01T16:44:16.286Z,64.34
2023-01-01T16:46:43.500Z,64.67
2023-01-01T16:49:09.959Z,64.89
2023-01-01T16:51:40.590Z,65.07
2023-01-01T16:54:10.534Z,65.38
2023-01-01T16:56:37.163Z,65.33
2023-01-01T16:59:03.908Z,65.46
2023-01-01T17:01:31.190Z,65.74
2023-01-01T17:03:57.942Z,66.33
2023-01-01T17:06:24.352Z,66.46
2023-01-01T17:08:50.789Z,67.11
2023-01-01T17:11:18.782Z,67.17
2023-01-01T17:13:47.427Z,67.79
2023-01-01T17:16:21.105Z,67.64
2023-01-01T17:19:14.470Z,67.67
2023-01-01T17:21:39.840Z,67.83
2023-01-01T17:24:06.998Z,68.40
2023-01-01T17:26:33.532Z,68.38
2023-01-01T17:29:01.232Z,68.61
2023-01-01T17:31:28.992Z,68.91
2023-01-01T17:33:55.938Z,69.24
2023-01-01T17:36:22.419Z,69.52
2023-01-01T17:38:48.817Z,69.86
2023-01-01T17:41:16.816Z,69.98
2023-01-01T17:43:46.022Z,70.56
2023-01-01T17:46:14.037Z,70.57
2023-01-01T17:48:41.557Z,70.86
2023-01-01T17:51:08.332Z,70.92
2023-01-01T17:53:35.097Z,70.92
2023-01-01T17:56:01.816Z,70.92
2023-01-01T17:58:33.561Z,71.07
2023-01-01T18:01:25.994Z,71.47
2023-01-01T18:03:59.407Z,71.95
2023-01-01T18:06:26.165Z,71.56
2023-01-01T18:09:00.249Z,71.83
2023-01-01T18:11:28.717Z,71.93
2023-01-01T18:13:56.489Z,72.27
2023-01-01T18:16:23.438Z,72.47
2023-01-01T18:18:50.167Z,72.62
2023-01-01T18:21:21.688Z,73.10
2023-01-01T18:23:54.006Z,73.00
2023-01-01T18:26:22.944Z,73.17
2023-01-01T18:28:58.214Z,73.39
2023-01-01T18:31:26.808Z,72.85
2023-01-01T18:33:54.206Z,73.14
2023-01-01T18:36:24.263Z,73.33
2023-01-01T18:39:00.546Z,73.71
2023-01-01T18:41:41.215Z,73.91
2023-01-01T18:44:30.584Z,74.63
2023-01-01T18:47:06.080Z,74.59
2023-01-01T18:49:37.075Z,74.20
2023-01-01T18:52:21.924Z,74.74
2023-01-01T18:54:56.957Z,74.59
2023-01-01T18:57:29.358Z,74.20
2023-01-01T18:59:59.505Z,74.95
2023-01-01T19:02:34.980Z,74.87
2023-01-01T19:05:15.653Z,75.12
2023-01-01T19:07:43.849Z,74.91
2023-01-01T19:10:13.989Z,75.05
2023-01-01T19:12:40.691Z,74.94
2023-01-01T19:15:16.242Z,75.75
2023-01-01T19:17:43.371Z,75.37
2023-01-01T19:20:24.084Z,75.84
2023-01-01T19:22:50.579Z,75.57
2023-01-01T19:25:32.295Z,75.88
2023-01-01T19:28:23.087Z,75.87
2023-01-01T19:30:49.464Z,75.34
2023-01-01T19:33:15.939Z,75.75
2023-01-01T19:35:42.381Z,75.99
2023-01-01T19:38:08.847Z,76.06
2023-01-01T19:40:35.310Z,76.27
2023-01-01T19:43:03.579Z,76.58
2023-01-01T19:45:30.037Z,76.56
2023-01-01T19:47:56.678Z,76.34
2023-01-01T19:50:23.199Z,76.54
2023-01-01T19:52:49.717Z,76.51
2023-01-01T19:55:16.299Z,76.43
2023-01-01T19:57:42.677Z,76.35
2023-01-01T20:00:09.749Z,76.18
2023-01-01T20:02:45.895Z,76.08
2023-01-01T20:05:13.679Z,76.14
2023-01-01T20:07:40.116Z,76.35
2023-01-01T20:10:06.884Z,76.15
2023-01-01T20:12:33.290Z,76.08
2023-01-01T20:14:59.702Z,76.16
2023-01-01T20:17:26.197Z,76.04
2023-01-01T20:19:54.725Z,76.12
2023-01-01T20:22:21.959Z,76.42
2023-01-01T20:24:48.534Z,76.58
2023-01-01T20:27:18.982Z,76.95
2023-01-01T20:29:45.496Z,76.71
2023-01-01T20:32:13.213Z,77.02
2023-01-01T20:34:40.324Z,77.08
2023-01-01T20:37:26.177Z,77.57
2023-01-01T20:39:53.253Z,77.54
2023-01-01T20:42:20.288Z,77.80
2023-01-01T20:44:46.765Z,77.86
2023-01-01T20:47:14.032Z,77.87
2023-01-01T20:49:41.492Z,78.34
2023-01-01T20:52:08.158Z,78.38
2023-01-01T20:54:34.816Z,78.57
2023-01-01T20:57:01.534Z,78.77
2023-01-01T20:59:37.316Z,79.03
2023-01-01T21:02:09.357Z,79.76
2023-01-01T21:04:38.735Z,80.17
2023-01-01T21:07:10.560Z,80.68
2023-01-01T21:09:38.021Z,80.74
2023-01-01T21:12:05.470Z,81.28
2023-01-01T21:14:32.418Z,81.30
2023-01-01T21:16:59.038Z,81.64
2023-01-01T21:19:27.278Z,81.79
2023-01-01T21:21:58.380Z,82.55
2023-01-01T21:24:35.010Z,82.91
2023-01-01T21:27:13.771Z,83.41
2023-01-01T21:29:49.028Z,83.49
2023-01-01T21:32:32.493Z,84.04
2023-01-01T21:34:58.954Z,83.37
2023-01-01T21:37:47.230Z,84.06
2023-01-01T21:40:38.351Z,84.76
2023-01-01T21:43:04.733Z,84.09
2023-01-01T21:45:38.163Z,84.68
2023-01-01T21:48:28.966Z,84.83
2023-01-01T21:50:55.452Z,83.79
2023-01-01T21:53:35.994Z,84.01
2023-01-01T21:56:18.166Z,84.44
2023-01-01T21:59:04.313Z,83.60
2023-01-01T22:01:38.497Z,84.16
2023-01-01T22:04:10.892Z,84.22
2023-01-01T22:06:40.398Z,83.70
2023-01-01T22:09:25.418Z,84.52
2023-01-01T22:11:59.188Z,84.31
2023-01-01T22:14:34.165Z,83.75
2023-01-01T22:17:00.742Z,83.65
2023-01-01T22:19:36.978Z,84.03
2023-01-01T22:22:12.133Z,84.13
2023-01-01T22:24:38.561Z,83.43
2023-01-01T22:27:25.479Z,84.02
2023-01-01T22:29:52.317Z,83.09
2023-01-01T22:32:28.109Z,83.82
2023-01-01T22:35:13.042Z,83.84
2023-01-01T22:37:41.593Z,83.02
2023-01-01T22:40:17.366Z,83.42
2023-01-01T22:42:43.793Z,82.65
2023-01-01T22:45:17.084Z,83.16
2023-01-01T22:47:46.914Z,82.38
2023-01-01T22:50:22.226Z,83.00
2023-01-01T22:52:49.407Z,82.12
2023-01-01T22:55:16.532Z,81.88
2023-01-01T22:57:43.268Z,81.67
2023-01-01T23:00:12.011Z,81.87
2023-01-01T23:02:38.423Z,81.79
2023-01-01T23:05:05.783Z,81.53
2023-01-01T23:07:39.710Z,81.48
2023-01-01T23:10:10.813Z,81.27
2023-01-01T23:12:37.270Z,81.11
2023-01-01T23:15:22.860Z,81.21
2023-01-01T23:17:50.337Z,80.92
2023-01-01T23:20:16.951Z,80.96
2023-01-01T23:22:47.470Z,81.00
2023-01-01T23:25:17.539Z,81.13
2023-01-01T23:27:46.478Z,80.92
2023-01-01T23:30:13.794Z,80.70
2023-01-01T23:32:41.780Z,80.61
2023-01-01T23:35:09.344Z,80.40
2023-01-01T23:37:36.189Z,80.27
2023-01-01T23:40:02.659Z,79.97
2023-01-01T23:42:29.097Z,79.86
2023-01-01T23:44:55.476Z,79.70
2023-01-01T23:47:22.037Z,79.46
2023-01-01T23:49:48.525Z,79.32
2023-01-01T23:52:14.943Z,79.27
2023-01-01T23:54:41.417Z,79.02
2023-01-01T23:57:07.988Z,79.02
2023-01-01T23:59:34.344Z,79.04
